Time;durP1;ratioP1;P1;durP2;ratioP2;P2;SDS_P1;SDS_P2;PMS_P1;PMS_P2;Temp;Humidity;BMP_temperature;BMP_pressure;BME280_temperature;BME280_humidity;BME280_pressure;Samples;Min_cycle;Max_cycle;Signal;HPM_P1;HPM_P2
2023/02/26 00:37:30;;;;;;;9.18;0.80;;;0.50;99.90;;;;;;6305042;22;20010;-81
2023/02/26 02:07:18;;;;;;;3.90;0.30;;;0.30;99.90;;;;;;6306651;22;20037;-81
2023/02/26 02:26:43;;;;;;;3.83;1.08;;;0.00;99.90;;;;;;6211809;23;20023;-81
2023/02/26 02:38:34;;;;;;;3.67;0.30;;;0.30;99.90;;;;;;6182175;23;20052;-81
2023/02/26 02:46:43;;;;;;;4.15;0.35;;;0.40;99.90;;;;;;6007122;23;20087;-81
2023/02/26 02:50:46;;;;;;;6.20;0.40;;;0.40;99.90;;;;;;5978485;23;20040;-80
2023/02/26 03:01:50;;;;;;;9.40;0.30;;;0.50;99.90;;;;;;5976614;23;20085;-81
2023/02/26 03:20:26;;;;;;;4.50;0.30;;;0.30;99.90;;;;;;5896843;24;21051;-81
2023/02/26 03:31:33;;;;;;;3.53;0.50;;;0.10;99.90;;;;;;6008073;23;20052;-81
2023/02/26 03:35:23;;;;;;;1.38;0.25;;;0.20;99.90;;;;;;5896336;24;20379;-81
2023/02/26 03:39:19;;;;;;;2.33;0.50;;;0.60;99.90;;;;;;5842104;24;20034;-81
2023/02/26 03:42:17;;;;;;;2.72;0.30;;;0.00;99.90;;;;;;5119220;27;21023;-82
2023/02/26 04:46:12;;;;;;;2.90;0.65;;;-0.50;99.90;;;;;;5044169;28;20052;-82
2023/02/26 04:49:57;;;;;;;3.75;0.40;;;-0.70;99.90;;;;;;4966843;28;20216;-82
2023/02/26 04:53:38;;;;;;;6.13;0.80;;;-0.60;99.90;;;;;;4967438;28;20092;-82
2023/02/26 04:57:12;;;;;;;5.82;0.32;;;-0.70;99.90;;;;;;5012834;28;20190;-82
2023/02/26 05:01:01;;;;;;;9.80;0.60;;;-0.50;99.90;;;;;;4989249;28;20776;-82
2023/02/26 05:04:51;;;;;;;2.13;0.30;;;-1.30;99.90;;;;;;4855783;29;20481;-82
2023/02/26 05:16:05;;;;;;;2.05;0.32;;;-0.50;99.90;;;;;;4830830;29;20098;-82
2023/02/26 05:19:19;;;;;;;3.53;0.30;;;-0.80;99.90;;;;;;4844711;29;20125;-82
2023/02/26 05:22:56;;;;;;;2.28;0.20;;;-0.40;99.90;;;;;;4851446;29;20068;-82
2023/02/26 05:27:00;;;;;;;3.33;0.38;;;-0.90;99.90;;;;;;4817163;29;20061;-82
2023/02/26 05:30:10;;;;;;;6.68;0.82;;;-0.90;99.90;;;;;;4822612;29;20081;-82
2023/02/26 05:33:30;;;;;;;6.43;0.38;;;-0.70;99.90;;;;;;4807521;29;20053;-82
2023/02/26 05:51:49;;;;;;;1.60;0.30;;;-0.60;99.90;;;;;;5020718;28;20035;-82
2023/02/26 05:55:21;;;;;;;4.22;0.55;;;-0.80;99.90;;;;;;5006646;28;20049;-82
2023/02/26 05:58:32;;;;;;;2.55;0.30;;;-0.10;99.90;;;;;;4974780;28;20523;-82
2023/02/26 06:02:06;;;;;;;6.75;1.60;;;-0.60;99.90;;;;;;5007005;28;20102;-82
2023/02/26 06:05:39;;;;;;;3.53;0.50;;;-0.20;99.90;;;;;;4997644;28;20141;-82
2023/02/26 06:09:10;;;;;;;1.77;0.20;;;-0.80;99.90;;;;;;5004678;28;20092;-82
2023/02/26 06:15:29;;;;;;;3.85;0.52;;;-0.80;99.90;;;;;;5023046;28;20037;-82
2023/02/26 06:18:00;;;;;;;4.68;0.40;;;-0.70;99.90;;;;;;5054872;28;20113;-82
2023/02/26 06:20:39;;;;;;;5.80;0.50;;;-0.80;99.90;;;;;;5067469;28;20398;-82
2023/02/26 06:23:26;;;;;;;;;;;;;;;;;;;;;
2023/02/26 06:25:58;;;;;;;4.53;0.15;;;-0.70;99.90;;;;;;5077628;28;20032;-82
2023/02/26 06:28:43;;;;;;;3.72;0.40;;;-0.70;99.90;;;;;;5088668;28;20043;-82
2023/02/26 06:31:33;;;;;;;3.63;0.40;;;-0.60;99.90;;;;;;5080572;28;20047;-82
2023/02/26 06:34:34;;;;;;;6.85;0.35;;;-0.70;99.90;;;;;;5072613;28;20036;-82
2023/02/26 06:37:37;;;;;;;;;;;;;;;;;;;;;
2023/02/26 06:40:12;;;;;;;5.07;0.30;;;-0.10;99.90;;;;;;5082795;28;20044;-82
2023/02/26 06:46:09;;;;;;;;;;;;;;;;;;;;;
2023/02/26 06:48:49;;;;;;;;;;;;;;;;;;;;;
2023/02/26 06:51:24;;;;;;;5.57;0.40;;;-0.90;99.90;;;;;;5077208;28;20438;-82
2023/02/26 06:54:05;;;;;;;6.13;0.43;;;-0.60;99.90;;;;;;5084695;28;20114;-82
2023/02/26 06:57:02;;;;;;;;;;;;;;;;;;;;;
2023/02/26 06:59:31;;;;;;;;;;;-0.20;99.90;;;;;;5076438;28;20098;-82
2023/02/26 07:05:19;;;;;;;2.40;0.50;;;0.50;99.90;;;;;;5078637;28;20048;-81
2023/02/26 07:11:10;;;;;;;3.73;0.70;;;0.30;99.90;;;;;;5090798;28;20047;-81
2023/02/26 07:13:57;;;;;;;4.60;0.65;;;0.30;99.90;;;;;;5071448;28;20062;-82
2023/02/26 07:16:51;;;;;;;4.05;0.32;;;0.80;99.90;;;;;;5075894;28;20079;-82
2023/02/26 07:19:43;;;;;;;5.00;0.60;;;0.60;99.90;;;;;;5066539;28;20076;-82
2023/02/26 07:22:15;;;;;;;2.67;0.30;;;-0.10;99.90;;;;;;5060297;28;20044;-82
2023/02/26 07:25:03;;;;;;;;;;;;;;;;;;;;;
2023/02/26 07:27:42;;;;;;;5.32;0.40;;;1.20;99.90;;;;;;5087695;28;20043;-82
2023/02/26 07:30:41;;;;;;;7.22;0.45;;;1.40;99.90;;;;;;5065609;28;20047;-82
2023/02/26 07:33:18;;;;;;;3.47;0.23;;;0.40;99.90;;;;;;5046556;28;20513;-82
2023/02/26 07:36:04;;;;;;;5.05;0.40;;;1.20;99.90;;;;;;5060785;28;20461;-82
2023/02/26 07:38:43;;;;;;;5.85;0.30;;;0.00;99.90;;;;;;5078910;28;20429;-82
2023/02/26 07:41:13;;;;;;;3.42;0.40;;;0.80;99.90;;;;;;5080492;28;20119;-82
2023/02/26 07:43:55;;;;;;;4.53;0.40;;;1.20;99.90;;;;;;5079095;28;20067;-82
2023/02/26 07:46:28;;;;;;;3.70;0.30;;;1.20;99.90;;;;;;5070288;28;20043;-82
2023/02/26 07:49:02;;;;;;;3.65;0.65;;;1.70;99.90;;;;;;5061942;28;20032;-82
2023/02/26 07:51:41;;;;;;;2.42;0.20;;;1.30;99.90;;;;;;5060155;28;20051;-82
2023/02/26 07:54:12;;;;;;;6.05;0.52;;;1.40;99.90;;;;;;5094961;28;20493;-82
2023/02/26 07:56:50;;;;;;;6.40;0.50;;;1.50;99.90;;;;;;5084745;28;20040;-82
2023/02/26 07:59:20;;;;;;;3.95;0.28;;;1.30;99.90;;;;;;5074651;28;20032;-82
2023/02/26 08:01:50;;;;;;;6.93;0.60;;;1.00;99.90;;;;;;5083661;28;20045;-82
2023/02/26 08:04:31;;;;;;;9.25;2.15;;;2.00;99.90;;;;;;5085501;28;20510;-82
2023/02/26 08:07:00;;;;;;;1.90;0.40;;;1.80;99.90;;;;;;5078657;28;20035;-82
2023/02/26 08:09:29;;;;;;;4.10;0.80;;;2.20;99.90;;;;;;5084785;28;20048;-82
2023/02/26 08:11:57;;;;;;;4.38;0.57;;;1.80;99.90;;;;;;5061490;28;20036;-82
2023/02/26 08:14:27;;;;;;;5.00;0.70;;;2.50;99.90;;;;;;5052397;28;20032;-82
2023/02/26 08:16:59;;;;;;;4.28;0.60;;;2.30;99.90;;;;;;5082776;28;20040;-82
2023/02/26 08:19:26;;;;;;;3.13;0.70;;;2.40;99.90;;;;;;5083678;28;20048;-81
2023/02/26 08:21:57;;;;;;;9.02;0.50;;;2.00;99.90;;;;;;5061290;28;20067;-82
2023/02/26 08:24:25;;;;;;;6.93;0.60;;;2.40;99.90;;;;;;5084449;28;20401;-82
2023/02/26 08:26:55;;;;;;;5.63;0.77;;;2.10;99.90;;;;;;5049582;28;20071;-82
2023/02/26 08:29:24;;;;;;;3.47;0.45;;;2.40;99.90;;;;;;5081775;28;20374;-82
2023/02/26 08:31:51;;;;;;;5.35;0.32;;;2.50;99.90;;;;;;5063296;28;20429;-82
2023/02/26 08:34:19;;;;;;;3.88;0.50;;;2.80;99.90;;;;;;5052272;28;20073;-82
2023/02/26 08:36:46;;;;;;;2.47;0.40;;;3.10;99.90;;;;;;5066569;28;20036;-82
2023/02/26 08:39:14;;;;;;;2.15;0.30;;;2.90;99.90;;;;;;5071261;28;20136;-82
2023/02/26 08:41:45;;;;;;;5.13;1.00;;;2.50;99.90;;;;;;5073482;28;20025;-82
2023/02/26 08:44:13;;;;;;;1.55;0.32;;;3.20;99.90;;;;;;5075637;28;20036;-82
2023/02/26 08:46:49;;;;;;;3.83;0.30;;;3.30;99.90;;;;;;5082743;28;20479;-83
2023/02/26 08:49:17;;;;;;;3.25;0.30;;;3.20;99.90;;;;;;5071088;28;20089;-82
2023/02/26 08:51:45;;;;;;;3.28;0.50;;;3.40;99.90;;;;;;5062103;28;20040;-83
2023/02/26 08:54:13;;;;;;;6.07;0.50;;;3.60;99.90;;;;;;5074509;28;20111;-83
2023/02/26 08:56:43;;;;;;;5.53;1.00;;;3.30;99.90;;;;;;5074402;28;20040;-82
2023/02/26 08:59:17;;;;;;;4.32;0.60;;;3.50;99.90;;;;;;5088894;28;20071;-82
2023/02/26 09:01:48;;;;;;;5.57;0.30;;;3.80;99.90;;;;;;5085618;28;20171;-82
2023/02/26 09:04:16;;;;;;;2.28;0.77;;;3.60;99.90;;;;;;5079002;28;20044;-82
2023/02/26 09:06:44;;;;;;;2.63;0.35;;;3.70;99.90;;;;;;5067677;28;20028;-82
2023/02/26 09:09:12;;;;;;;1.80;0.35;;;3.00;99.90;;;;;;5075049;28;20688;-82
2023/02/26 09:11:47;;;;;;;7.38;0.32;;;3.60;99.90;;;;;;5084789;28;20083;-83
2023/02/26 09:14:22;;;;;;;6.07;0.50;;;3.60;99.90;;;;;;5081614;28;20056;-83
2023/02/26 09:16:57;;;;;;;1.27;0.30;;;3.90;99.90;;;;;;5075986;28;20051;-82
2023/02/26 09:19:38;;;;;;;3.05;0.35;;;4.50;99.90;;;;;;5073671;28;20040;-83
2023/02/26 09:22:06;;;;;;;1.65;0.20;;;4.10;99.90;;;;;;5049872;28;20563;-83
2023/02/26 09:24:35;;;;;;;4.10;0.30;;;4.20;99.90;;;;;;5079331;28;20451;-82
2023/02/26 09:27:03;;;;;;;1.73;0.35;;;4.10;99.90;;;;;;5080148;28;20039;-83
2023/02/26 09:29:41;;;;;;;2.10;0.10;;;5.00;99.90;;;;;;5057813;28;20040;-82
2023/02/26 09:32:11;;;;;;;1.67;0.30;;;4.40;99.90;;;;;;5061432;28;20051;-83
2023/02/26 09:34:42;;;;;;;4.05;0.68;;;4.40;99.90;;;;;;5060631;28;20052;-82
2023/02/26 09:37:12;;;;;;;0.68;0.20;;;4.50;99.90;;;;;;5084186;28;20036;-83
2023/02/26 09:39:40;;;;;;;2.47;0.20;;;4.10;99.90;;;;;;5069618;28;20036;-83
2023/02/26 09:42:22;;;;;;;6.93;0.30;;;4.90;99.90;;;;;;5068974;28;20047;-82
2023/02/26 09:44:59;;;;;;;0.75;0.20;;;4.50;99.90;;;;;;5083777;28;20032;-84
2023/02/26 09:47:39;;;;;;;2.42;0.28;;;4.90;99.90;;;;;;5082149;28;20058;-83
2023/02/26 09:51:05;;;;;;;1.45;0.28;;;4.60;99.90;;;;;;5084103;28;20494;-82
2023/02/26 09:53:43;;;;;;;2.45;0.45;;;4.70;99.90;;;;;;5072853;28;20070;-83
2023/02/26 09:57:20;;;;;;;;;;;;;;;;;;;;;
2023/02/26 09:59:52;;;;;;;1.38;0.20;;;4.90;99.90;;;;;;5062384;28;20163;-83
2023/02/26 10:03:26;;;;;;;1.98;0.40;;;5.00;99.90;;;;;;5072544;28;20509;-84
2023/02/26 10:07:03;;;;;;;;;;;;;;;;;;;;;
2023/02/26 10:10:30;;;;;;;2.13;0.20;;;4.40;99.90;;;;;;5064161;22;20155;-83
2023/02/26 10:54:37;;;;;;;1.38;0.20;;;4.90;99.90;;;;;;4975053;28;20448;-83
2023/02/26 11:02:15;;;;;;;1.65;0.20;;;5.30;99.90;;;;;;4888742;29;20190;-83
2023/02/26 11:10:02;;;;;;;2.33;0.30;;;5.80;99.90;;;;;;4869308;29;20140;-83
2023/02/26 11:43:15;;;;;;;3.80;0.25;;;6.20;99.90;;;;;;4944792;28;20145;-83
2023/02/26 11:46:54;;;;;;;3.65;0.40;;;6.00;99.90;;;;;;4925276;29;20052;-83
2023/02/26 11:50:40;;;;;;;2.27;0.67;;;5.70;99.90;;;;;;4986963;28;20527;-83
2023/02/26 11:53:48;;;;;;;3.58;0.30;;;5.20;99.90;;;;;;4991207;28;20296;-83
2023/02/26 11:57:07;;;;;;;1.52;0.20;;;5.70;99.90;;;;;;4980253;28;20193;-83
2023/02/26 11:59:51;;;;;;;1.90;0.20;;;6.10;99.90;;;;;;4972785;28;20138;-83
2023/02/26 12:03:03;;;;;;;0.80;0.20;;;5.60;99.90;;;;;;4969004;28;20085;-83
2023/02/26 12:05:41;;;;;;;1.85;0.20;;;5.90;99.90;;;;;;4968028;28;20564;-83
2023/02/26 12:08:31;;;;;;;3.35;0.50;;;5.50;99.90;;;;;;4978435;28;20152;-82
2023/02/26 12:11:55;;;;;;;2.92;0.25;;;5.40;99.90;;;;;;5010442;28;20045;-82
2023/02/26 12:15:34;;;;;;;;;;;;;;;;;;;;;
2023/02/26 12:19:15;;;;;;;1.13;0.25;;;6.70;99.90;;;;;;5030655;28;20061;-83
2023/02/26 12:22:28;;;;;;;1.35;0.25;;;6.10;99.90;;;;;;4953417;29;20059;-83
2023/02/26 12:25:34;;;;;;;3.42;0.30;;;6.40;99.90;;;;;;4902612;29;20094;-83
2023/02/26 12:28:55;;;;;;;;;;;;;;;;;;;;;
2023/02/26 12:32:42;;;;;;;;;;;;;;;;;;;;;
2023/02/26 12:36:28;;;;;;;2.03;0.20;;;6.50;99.90;;;;;;4922239;29;20338;-83
2023/02/26 12:39:51;;;;;;;1.50;0.20;;;6.80;99.90;;;;;;4926182;29;20055;-83
2023/02/26 12:47:00;;;;;;;4.22;0.38;;;6.60;99.90;;;;;;5032570;28;20053;-83
2023/02/26 12:50:44;;;;;;;2.13;0.20;;;6.80;99.90;;;;;;4988425;28;20551;-83
2023/02/26 12:53:49;;;;;;;2.15;0.57;;;6.90;99.90;;;;;;4939359;28;20054;-83
2023/02/26 12:57:26;;;;;;;2.42;0.43;;;7.00;99.90;;;;;;4971509;28;20084;-82
2023/02/26 13:01:10;;;;;;;3.33;0.20;;;7.40;99.90;;;;;;4942662;28;20058;-83
2023/02/26 13:08:35;;;;;;;1.73;0.20;;;6.80;99.90;;;;;;4858461;29;20049;-83
2023/02/26 13:12:09;;;;;;;3.67;0.32;;;6.50;99.90;;;;;;4917679;28;20536;-83
2023/02/26 13:15:21;;;;;;;2.38;0.20;;;6.20;99.90;;;;;;5020223;28;20057;-83
2023/02/26 13:18:48;;;;;;;0.65;0.10;;;6.40;99.90;;;;;;4917199;29;20124;-83
2023/02/26 13:22:18;;;;;;;1.92;0.10;;;6.60;99.90;;;;;;4993629;28;20053;-83
2023/02/26 13:25:31;;;;;;;1.40;0.20;;;6.60;99.90;;;;;;4941296;28;20101;-83
2023/02/26 13:28:19;;;;;;;2.17;0.57;;;6.70;99.90;;;;;;5013595;28;20093;-83
2023/02/26 13:32:03;;;;;;;2.75;0.30;;;6.60;99.90;;;;;;5025666;28;20083;-83
2023/02/26 13:35:42;;;;;;;6.05;0.40;;;6.70;99.90;;;;;;5030756;28;20049;-82
2023/02/26 13:39:26;;;;;;;4.10;0.30;;;6.50;99.90;;;;;;5031641;28;20113;-82
2023/02/26 13:42:45;;;;;;;1.75;0.30;;;6.70;99.90;;;;;;4976467;28;20045;-83
2023/02/26 13:45:38;;;;;;;2.65;0.40;;;6.70;99.90;;;;;;5014594;28;20064;-83
2023/02/26 13:52:54;;;;;;;2.28;0.20;;;6.40;99.90;;;;;;5016063;28;20515;-83
2023/02/26 13:55:49;;;;;;;3.25;0.40;;;6.50;99.90;;;;;;4986095;28;20045;-82
2023/02/26 13:58:21;;;;;;;2.55;0.43;;;7.70;99.90;;;;;;5015246;28;20049;-83
2023/02/26 14:01:56;;;;;;;3.70;0.95;;;7.00;99.90;;;;;;5022306;28;20416;-83
2023/02/26 14:05:54;;;;;;;;;;;;;;;;;;;;;
2023/02/26 14:09:10;;;;;;;2.50;0.57;;;6.00;99.90;;;;;;4863495;28;20142;-83
2023/02/26 14:12:30;;;;;;;3.63;0.50;;;6.60;99.90;;;;;;4921395;28;20069;-83
2023/02/26 14:15:57;;;;;;;5.13;0.52;;;6.60;99.90;;;;;;4965674;28;20074;-82
2023/02/26 14:19:08;;;;;;;5.00;0.40;;;6.10;99.90;;;;;;5006527;28;20056;-83
2023/02/26 14:22:42;;;;;;;5.38;0.70;;;6.40;99.90;;;;;;4991236;28;20524;-82
2023/02/26 14:36:47;;;;;;;4.28;0.70;;;6.50;99.90;;;;;;4891484;29;19973;-83
2023/02/26 14:40:33;;;;;;;3.95;0.40;;;6.50;99.90;;;;;;4930618;29;20159;-83
2023/02/26 14:44:30;;;;;;;4.28;0.57;;;6.50;99.90;;;;;;4908943;29;20844;-83
2023/02/26 14:47:14;;;;;;;8.23;1.25;;;6.40;99.90;;;;;;4905499;29;20891;-83
2023/02/26 14:54:47;;;;;;;7.05;0.30;;;5.50;99.90;;;;;;4930505;29;20062;-83
2023/02/26 14:58:23;;;;;;;;;;;;;;;;;;;;;
2023/02/26 15:01:45;;;;;;;2.78;0.43;;;5.70;99.90;;;;;;5002452;28;20143;-83
2023/02/26 15:05:08;;;;;;;3.03;0.35;;;5.60;99.90;;;;;;4991253;28;20053;-83
2023/02/26 15:08:42;;;;;;;4.00;0.40;;;5.40;99.90;;;;;;5006900;28;20667;-82
2023/02/26 15:12:10;;;;;;;5.63;0.70;;;5.00;99.90;;;;;;4977099;28;20518;-84
2023/02/26 15:15:13;;;;;;;2.35;0.50;;;5.00;99.90;;;;;;5001844;28;20041;-83
2023/02/26 15:18:51;;;;;;;6.90;0.73;;;5.00;99.90;;;;;;4988647;28;20049;-83
2023/02/26 15:22:23;;;;;;;;;;;5.10;99.90;;;;;;4996941;28;20055;-83
2023/02/26 15:26:07;;;;;;;4.03;0.60;;;5.00;99.90;;;;;;4997329;28;19937;-82
2023/02/26 15:29:52;;;;;;;6.82;0.80;;;5.10;99.90;;;;;;5004135;28;20040;-84
2023/02/26 15:32:42;;;;;;;4.57;0.75;;;5.00;99.90;;;;;;4987680;28;20056;-83
2023/02/26 15:46:41;;;;;;;6.25;0.43;;;5.30;99.90;;;;;;4960449;28;20049;-84
2023/02/26 15:49:55;;;;;;;8.20;0.63;;;5.30;99.90;;;;;;4960984;28;20079;-83
2023/02/26 15:53:20;;;;;;;2.42;0.68;;;4.80;99.90;;;;;;4991512;28;20080;-83
2023/02/26 16:01:20;;;;;;;4.25;0.40;;;4.70;99.90;;;;;;4879894;29;20063;-83
2023/02/26 16:08:12;;;;;;;4.90;0.70;;;5.40;99.90;;;;;;4900225;29;20050;-84
2023/02/26 16:25:47;;;;;;;4.15;0.50;;;4.20;99.90;;;;;;4959977;28;20073;-83
2023/02/26 16:29:15;;;;;;;6.07;0.68;;;4.30;99.90;;;;;;4980261;28;21006;-83
2023/02/26 16:43:38;;;;;;;6.65;0.85;;;4.90;99.90;;;;;;4890093;29;20056;-83
2023/02/26 16:58:52;;;;;;;5.82;0.40;;;3.90;99.90;;;;;;4858376;29;20125;-84
2023/02/26 17:21:31;;;;;;;3.97;0.52;;;3.90;99.90;;;;;;4927897;29;20079;-83
2023/02/26 17:25:51;;;;;;;4.45;0.82;;;3.80;99.90;;;;;;4915645;29;20070;-83
2023/02/26 17:40:53;;;;;;;;;;;;;;;;;;;;;
2023/02/26 17:44:41;;;;;;;3.97;0.50;;;3.40;99.90;;;;;;4876649;29;20843;-83
2023/02/26 17:52:07;;;;;;;3.75;0.40;;;3.30;99.90;;;;;;4818352;29;20053;-83
2023/02/26 18:15:02;;;;;;;6.82;0.77;;;2.90;99.90;;;;;;4793230;29;20566;-83
2023/02/26 18:22:47;;;;;;;;;;;;;;;;;;;;;
2023/02/26 18:29:58;;;;;;;4.97;1.35;;;3.00;99.90;;;;;;4863603;29;20103;-83
2023/02/26 19:52:07;;;;;;;1.48;0.40;;;2.30;99.90;;;;;;4894335;29;20068;-83
2023/02/26 21:37:54;;;;;;;2.97;0.52;;;0.40;99.90;;;;;;5009353;28;20508;-82
2023/02/26 21:48:38;;;;;;;6.25;0.80;;;0.90;99.90;;;;;;4952688;28;20102;-82
2023/02/26 21:51:44;;;;;;;2.20;0.70;;;0.50;99.90;;;;;;4988678;28;20064;-83
2023/02/26 21:54:52;;;;;;;4.32;0.82;;;1.10;99.90;;;;;;4961131;28;20591;-82
2023/02/26 22:01:51;;;;;;;7.38;0.80;;;0.60;99.90;;;;;;4971196;28;20058;-82
2023/02/26 22:13:27;;;;;;;7.97;1.05;;;0.70;99.90;;;;;;5009576;28;20049;-83
2023/02/26 22:28:52;;;;;;;16.60;2.55;;;1.30;99.90;;;;;;4824939;29;20657;-83
2023/02/26 22:32:20;;;;;;;4.72;1.30;;;0.50;99.90;;;;;;4818463;29;20247;-82
2023/02/26 22:35:31;;;;;;;8.40;1.35;;;0.50;99.90;;;;;;4859553;29;20072;-82
2023/02/26 22:38:50;;;;;;;3.05;1.27;;;0.60;99.90;;;;;;4862228;29;20172;-82
2023/02/26 22:45:44;;;;;;;7.50;0.90;;;0.60;99.90;;;;;;4992376;28;20158;-82
2023/02/26 22:49:48;;;;;;;4.68;1.40;;;0.40;99.90;;;;;;4976847;28;20073;-82
2023/02/26 22:53:51;;;;;;;4.28;1.00;;;0.20;99.90;;;;;;4906065;29;20083;-82
2023/02/26 22:57:49;;;;;;;7.90;1.02;;;0.20;99.90;;;;;;4847624;29;20160;-81
2023/02/26 23:01:49;;;;;;;5.20;1.52;;;0.50;99.90;;;;;;4851100;29;20420;-82
2023/02/26 23:05:22;;;;;;;5.93;1.55;;;0.10;99.90;;;;;;4854665;29;20519;-82
2023/02/26 23:09:02;;;;;;;4.53;1.20;;;0.60;99.90;;;;;;4881019;29;20882;-82
2023/02/26 23:24:32;;;;;;;8.02;1.25;;;-0.20;99.90;;;;;;4775285;30;20066;-82
2023/02/26 23:31:27;;;;;;;8.30;1.92;;;0.00;99.90;;;;;;4762705;30;20181;-82
2023/02/26 23:35:14;;;;;;;5.38;1.65;;;-0.90;99.90;;;;;;4765580;29;20057;-82
